createdAt,value
2017-11-12T00:01:11.346Z,1.20
2017-11-12T00:03:39.668Z,1.77
2017-11-12T00:06:08.759Z,1.27
2017-11-12T00:08:37.321Z,1.33
2017-11-12T00:11:05.670Z,1.10
2017-11-12T00:13:34.034Z,0.93
2017-11-12T00:16:02.366Z,1.00
2017-11-12T00:18:31.303Z,1.10
2017-11-12T00:20:59.643Z,0.97
2017-11-12T00:23:27.982Z,1.30
2017-11-12T00:25:56.374Z,1.00
2017-11-12T00:28:24.805Z,1.23
2017-11-12T00:30:53.103Z,1.13
2017-11-12T00:33:21.399Z,1.20
2017-11-12T00:35:50.016Z,1.27
2017-11-12T00:38:18.329Z,1.23
2017-11-12T00:40:47.417Z,1.07
2017-11-12T00:43:16.569Z,0.93
2017-11-12T00:45:44.861Z,1.70
2017-11-12T00:48:13.224Z,1.27
2017-11-12T00:50:41.575Z,1.33
2017-11-12T00:53:09.881Z,1.07
2017-11-12T00:55:38.034Z,1.30
2017-11-12T00:58:06.319Z,1.00
2017-11-12T01:00:34.685Z,0.90
2017-11-12T01:03:02.985Z,1.30
2017-11-12T01:05:31.338Z,1.17
2017-11-12T01:07:59.713Z,1.07
2017-11-12T01:10:28.040Z,1.00
2017-11-12T01:12:56.367Z,1.20
2017-11-12T01:15:24.749Z,0.93
2017-11-12T01:17:53.100Z,1.10
2017-11-12T01:20:21.888Z,1.10
2017-11-12T01:22:50.242Z,1.07
2017-11-12T01:25:18.618Z,1.20
2017-11-12T01:27:46.718Z,1.80
2017-11-12T01:30:16.374Z,1.30
2017-11-12T01:32:44.237Z,0.97
2017-11-12T01:35:12.597Z,1.40
2017-11-12T01:37:40.994Z,1.10
2017-11-12T01:40:09.404Z,1.47
2017-11-12T01:42:37.747Z,0.93
2017-11-12T01:45:06.107Z,1.33
2017-11-12T01:47:34.526Z,1.20
2017-11-12T01:50:02.849Z,1.20
2017-11-12T01:52:31.709Z,0.93
2017-11-12T01:55:00.665Z,1.07
2017-11-12T01:57:28.985Z,1.13
2017-11-12T01:59:57.359Z,1.30
2017-11-12T02:02:25.707Z,1.20
2017-11-12T02:04:54.058Z,1.10
2017-11-12T02:07:22.385Z,1.10
2017-11-12T02:09:51.558Z,1.10
2017-11-12T02:12:19.905Z,1.20
2017-11-12T02:14:48.244Z,1.43
2017-11-12T02:17:18.072Z,0.83
2017-11-12T02:19:46.460Z,1.20
2017-11-12T02:22:14.775Z,1.07
2017-11-12T02:24:42.951Z,0.80
2017-11-12T02:27:11.120Z,0.93
2017-11-12T02:29:39.295Z,1.37
2017-11-12T02:32:08.316Z,0.97
2017-11-12T02:34:36.480Z,1.20
2017-11-12T02:37:04.368Z,1.07
2017-11-12T02:39:32.481Z,1.00
2017-11-12T02:42:00.879Z,1.10
2017-11-12T02:44:29.196Z,1.13
2017-11-12T02:46:57.511Z,1.33
2017-11-12T02:49:25.818Z,0.80
2017-11-12T02:51:54.174Z,1.00
2017-11-12T02:54:22.497Z,1.17
2017-11-12T02:56:50.854Z,1.10
2017-11-12T02:59:19.180Z,1.73
2017-11-12T03:01:47.475Z,1.03
2017-11-12T03:04:15.853Z,1.50
2017-11-12T03:06:44.947Z,1.17
2017-11-12T03:09:13.250Z,1.50
2017-11-12T03:11:41.622Z,1.20
2017-11-12T03:14:09.945Z,1.00
2017-11-12T03:16:38.255Z,1.17
2017-11-12T03:19:06.603Z,0.90
2017-11-12T03:21:34.946Z,1.17
2017-11-12T03:24:03.260Z,1.23
2017-11-12T03:26:31.676Z,1.10
2017-11-12T03:29:00.006Z,1.20
2017-11-12T03:31:28.333Z,0.93
2017-11-12T03:33:57.832Z,1.50
2017-11-12T03:36:26.896Z,1.17
2017-11-12T03:38:55.218Z,1.30
2017-11-12T03:41:23.577Z,1.37
2017-11-12T03:43:51.919Z,0.97
2017-11-12T03:46:20.258Z,1.30
2017-11-12T03:48:48.542Z,1.30
2017-11-12T03:51:16.705Z,1.10
2017-11-12T03:53:45.774Z,1.20
2017-11-12T03:56:14.128Z,1.70
2017-11-12T03:58:42.476Z,1.20
2017-11-12T04:01:10.833Z,1.33
2017-11-12T04:03:39.927Z,1.17
2017-11-12T04:06:08.976Z,1.50
2017-11-12T04:08:37.307Z,1.00
2017-11-12T04:11:05.645Z,1.30
2017-11-12T04:13:34.023Z,1.53
2017-11-12T04:16:02.333Z,1.33
2017-11-12T04:18:31.414Z,1.20
2017-11-12T04:20:59.763Z,0.90
2017-11-12T04:23:28.083Z,0.93
2017-11-12T04:25:57.184Z,1.40
2017-11-12T04:28:25.537Z,1.30
2017-11-12T04:30:53.835Z,0.90
2017-11-12T04:33:22.861Z,1.40
2017-11-12T04:35:51.207Z,1.10
2017-11-12T04:38:20.322Z,1.13
2017-11-12T04:40:48.683Z,1.40
2017-11-12T04:43:17.783Z,1.47
2017-11-12T04:45:46.511Z,1.13
2017-11-12T04:48:14.835Z,1.47
2017-11-12T04:50:43.175Z,1.33
2017-11-12T04:53:11.591Z,1.37
2017-11-12T04:55:40.132Z,1.67
2017-11-12T04:58:08.478Z,1.50
2017-11-12T05:00:36.854Z,1.37
2017-11-12T05:03:05.184Z,1.27
2017-11-12T05:05:35.155Z,1.77
2017-11-12T05:08:03.509Z,1.60
2017-11-12T05:10:31.829Z,1.20
2017-11-12T05:13:00.233Z,1.20
2017-11-12T05:15:28.646Z,1.33
2017-11-12T05:17:56.924Z,1.10
2017-11-12T05:20:26.024Z,1.50
2017-11-12T05:22:55.025Z,1.37
2017-11-12T05:25:23.445Z,1.47
2017-11-12T05:27:52.244Z,1.60
2017-11-12T05:30:20.625Z,1.67
2017-11-12T05:32:49.010Z,1.30
2017-11-12T05:35:17.924Z,1.70
2017-11-12T05:40:19.615Z,1.40
2017-11-12T05:42:48.200Z,1.97
2017-11-12T05:45:16.531Z,1.43
2017-11-12T05:47:44.969Z,1.47
2017-11-12T05:50:13.846Z,1.23
2017-11-12T05:52:42.972Z,1.67
2017-11-12T05:55:11.294Z,2.03
2017-11-12T05:57:39.630Z,1.63
2017-11-12T06:00:07.957Z,1.40
2017-11-12T06:02:36.307Z,1.57
2017-11-12T06:05:04.705Z,1.37
2017-11-12T06:07:32.900Z,1.30
2017-11-12T06:10:01.827Z,1.40
2017-11-12T06:12:29.980Z,1.40
2017-11-12T06:14:58.917Z,1.70
2017-11-12T06:17:27.121Z,1.10
2017-11-12T06:19:55.814Z,1.50
2017-11-12T06:22:23.926Z,1.50
2017-11-12T06:24:52.154Z,1.30
2017-11-12T06:27:20.304Z,1.50
2017-11-12T06:29:48.652Z,1.40
2017-11-12T06:32:16.999Z,1.10
2017-11-12T06:34:46.048Z,1.70
2017-11-12T06:37:14.399Z,1.70
2017-11-12T06:39:43.060Z,1.73
2017-11-12T06:42:11.492Z,2.13
2017-11-12T06:44:39.842Z,1.87
2017-11-12T06:47:08.147Z,1.67
2017-11-12T06:49:36.446Z,1.50
2017-11-12T06:52:05.959Z,1.23
2017-11-12T06:54:37.269Z,1.70
2017-11-12T06:57:05.940Z,1.40
2017-11-12T06:59:34.695Z,1.60
2017-11-12T07:02:03.074Z,1.70
2017-11-12T07:04:31.526Z,1.43
2017-11-12T07:07:04.382Z,1.57
2017-11-12T07:09:32.984Z,1.60
2017-11-12T07:12:01.378Z,1.60
2017-11-12T07:14:29.775Z,1.60
2017-11-12T07:16:58.373Z,2.00
2017-11-12T07:19:26.718Z,1.70
2017-11-12T07:21:55.091Z,1.70
2017-11-12T07:24:23.422Z,1.40
2017-11-12T07:26:51.746Z,2.33
2017-11-12T07:29:20.297Z,1.90
2017-11-12T07:31:51.987Z,2.10
2017-11-12T07:34:20.471Z,1.80
2017-11-12T07:36:48.853Z,1.77
2017-11-12T07:39:17.165Z,1.53
2017-11-12T07:41:45.473Z,1.70
2017-11-12T07:44:13.820Z,1.77
2017-11-12T07:46:42.362Z,1.90
2017-11-12T07:49:10.961Z,1.83
2017-11-12T07:51:39.327Z,1.80
2017-11-12T07:54:07.676Z,2.07
2017-11-12T07:56:35.968Z,1.97
2017-11-12T07:59:04.304Z,2.07
2017-11-12T08:01:33.434Z,2.07
2017-11-12T08:04:01.760Z,2.40
2017-11-12T08:06:30.100Z,2.20
2017-11-12T08:08:58.468Z,1.83
2017-11-12T08:11:26.797Z,2.40
2017-11-12T08:13:55.178Z,1.90
2017-11-12T08:16:24.262Z,2.10
2017-11-12T08:18:54.351Z,1.90
2017-11-12T08:21:22.668Z,2.00
2017-11-12T08:23:51.762Z,2.30
2017-11-12T08:26:20.163Z,2.03
2017-11-12T08:28:48.703Z,1.80
2017-11-12T08:31:17.269Z,1.70
2017-11-12T08:33:45.668Z,1.83
2017-11-12T08:36:14.021Z,1.60
2017-11-12T08:38:42.134Z,1.90
2017-11-12T08:41:10.512Z,1.90
2017-11-12T08:43:38.904Z,2.30
2017-11-12T08:46:07.773Z,2.03
2017-11-12T08:48:36.033Z,2.40
2017-11-12T08:51:04.194Z,2.03
2017-11-12T08:53:37.079Z,1.63
2017-11-12T08:56:10.655Z,1.80
2017-11-12T08:58:40.025Z,2.27
2017-11-12T09:01:08.579Z,3.20
2017-11-12T09:03:36.941Z,3.03
2017-11-12T09:06:05.672Z,3.30
2017-11-12T09:08:34.021Z,4.00
2017-11-12T09:11:02.326Z,2.60
2017-11-12T09:13:31.205Z,3.60
2017-11-12T09:16:00.336Z,2.87
2017-11-12T09:18:29.430Z,3.60
2017-11-12T09:20:58.629Z,3.50
2017-11-12T09:23:27.692Z,3.43
2017-11-12T09:25:56.092Z,3.00
2017-11-12T09:28:24.380Z,3.03
2017-11-12T09:30:53.473Z,3.40
2017-11-12T09:33:22.601Z,2.90
2017-11-12T09:35:51.845Z,3.40
2017-11-12T09:38:20.455Z,4.20
2017-11-12T09:40:48.785Z,2.73
2017-11-12T09:43:17.933Z,4.60
2017-11-12T09:45:46.234Z,3.90
2017-11-12T09:48:14.594Z,2.60
2017-11-12T09:50:42.898Z,3.50
2017-11-12T09:53:11.239Z,2.90
2017-11-12T09:55:39.787Z,2.87
2017-11-12T09:58:08.565Z,3.10
2017-11-12T10:00:36.890Z,2.63
2017-11-12T10:03:05.988Z,2.77
2017-11-12T10:05:34.339Z,3.10
2017-11-12T10:08:02.697Z,1.97
2017-11-12T10:10:31.909Z,2.40
2017-11-12T10:13:00.243Z,2.53
2017-11-12T10:15:28.550Z,2.70
2017-11-12T10:17:58.564Z,2.30
2017-11-12T10:20:26.884Z,1.90
2017-11-12T10:22:56.037Z,2.67
2017-11-12T10:25:24.933Z,2.63
2017-11-12T10:27:52.778Z,2.80
2017-11-12T10:30:21.177Z,2.63
2017-11-12T10:32:49.535Z,2.37
2017-11-12T10:35:17.906Z,2.27
2017-11-12T10:37:46.269Z,3.43
2017-11-12T10:40:14.561Z,2.50
2017-11-12T10:42:42.897Z,2.27
2017-11-12T10:45:11.221Z,2.90
2017-11-12T10:47:39.539Z,2.13
2017-11-12T10:50:07.872Z,2.00
2017-11-12T10:52:36.239Z,2.10
2017-11-12T10:55:04.564Z,2.00
2017-11-12T10:57:32.912Z,2.50
2017-11-12T11:00:01.212Z,1.90
2017-11-12T11:02:29.570Z,2.40
2017-11-12T11:04:57.918Z,2.30
2017-11-12T11:07:26.270Z,2.00
2017-11-12T11:09:55.630Z,2.13
2017-11-12T11:12:23.956Z,2.37
2017-11-12T11:14:52.317Z,2.20
2017-11-12T11:17:20.612Z,2.07
2017-11-12T11:19:48.916Z,1.97
2017-11-12T11:22:17.262Z,2.03
2017-11-12T11:24:46.222Z,2.07
2017-11-12T11:27:14.567Z,2.00
2017-11-12T11:29:43.628Z,2.00
2017-11-12T11:32:12.013Z,1.90
2017-11-12T11:34:40.354Z,1.93
2017-11-12T11:37:08.684Z,1.77
2017-11-12T11:39:36.992Z,2.00
2017-11-12T11:42:06.492Z,2.00
2017-11-12T11:44:34.797Z,1.77
2017-11-12T11:47:03.139Z,1.70
2017-11-12T11:49:32.267Z,1.77
2017-11-12T11:52:00.568Z,1.60
2017-11-12T11:54:28.918Z,1.70
2017-11-12T11:56:57.228Z,1.80
2017-11-12T11:59:25.545Z,2.20
2017-11-12T12:01:54.497Z,1.90
2017-11-12T12:04:22.803Z,2.17
2017-11-12T12:06:51.199Z,2.17
2017-11-12T12:09:19.523Z,2.10
2017-11-12T12:11:47.915Z,1.87
2017-11-12T12:14:16.259Z,2.23
2017-11-12T12:16:44.553Z,1.90
2017-11-12T12:19:12.912Z,1.90
2017-11-12T12:21:41.213Z,2.20
2017-11-12T12:24:09.525Z,2.00
2017-11-12T12:26:39.446Z,1.93
2017-11-12T12:29:07.768Z,2.13
2017-11-12T12:31:36.064Z,1.57
2017-11-12T12:34:04.403Z,1.73
2017-11-12T12:36:32.713Z,1.90
2017-11-12T12:39:00.859Z,1.93
2017-11-12T12:41:29.191Z,2.33
2017-11-12T12:43:57.643Z,2.20
2017-11-12T12:46:25.817Z,2.30
2017-11-12T12:48:54.092Z,2.10
2017-11-12T12:51:22.434Z,1.50
2017-11-12T12:53:50.813Z,2.47
2017-11-12T12:56:19.536Z,2.07
2017-11-12T12:58:48.085Z,2.07
2017-11-12T13:01:16.525Z,1.60
2017-11-12T13:03:44.881Z,1.60
2017-11-12T13:06:13.234Z,2.00
2017-11-12T13:08:41.636Z,2.50
2017-11-12T13:11:09.761Z,2.23
2017-11-12T13:13:38.890Z,2.00
2017-11-12T13:16:07.390Z,1.70
2017-11-12T13:18:35.724Z,1.80
2017-11-12T13:21:04.043Z,1.53
2017-11-12T13:23:32.393Z,2.10
2017-11-12T13:26:00.912Z,2.13
2017-11-12T13:28:29.188Z,1.93
2017-11-12T13:30:57.545Z,1.60
2017-11-12T13:33:25.884Z,1.53
2017-11-12T13:35:54.175Z,1.83
2017-11-12T13:38:23.262Z,1.80
2017-11-12T13:40:52.406Z,1.97
2017-11-12T13:43:20.973Z,1.53
2017-11-12T13:45:49.320Z,3.00
2017-11-12T13:48:17.629Z,2.10
2017-11-12T13:50:46.029Z,1.70
2017-11-12T13:53:14.385Z,1.80
2017-11-12T13:55:42.772Z,1.70
2017-11-12T13:58:11.152Z,1.90
2017-11-12T14:00:39.494Z,1.90
2017-11-12T14:03:08.565Z,1.90
2017-11-12T14:05:36.935Z,1.80
2017-11-12T14:08:05.909Z,1.37
2017-11-12T14:10:34.317Z,2.00
2017-11-12T14:13:03.434Z,1.40
2017-11-12T14:15:32.492Z,1.57
2017-11-12T14:18:00.836Z,1.50
2017-11-12T14:20:29.166Z,1.77
2017-11-12T14:22:57.513Z,1.57
2017-11-12T14:25:25.863Z,2.10
2017-11-12T14:27:54.298Z,1.80
2017-11-12T14:30:22.652Z,1.70
2017-11-12T14:32:51.043Z,1.87
2017-11-12T14:35:19.385Z,1.80
2017-11-12T14:37:47.761Z,1.70
2017-11-12T14:40:16.832Z,2.00
2017-11-12T14:42:45.159Z,1.73
2017-11-12T14:45:13.511Z,1.83
2017-11-12T14:47:41.832Z,1.50
2017-11-12T14:50:10.225Z,1.70
2017-11-12T14:52:38.655Z,1.60
2017-11-12T14:55:06.993Z,1.67
2017-11-12T14:57:35.294Z,2.20
2017-11-12T15:00:03.648Z,1.67
2017-11-12T15:02:31.955Z,1.50
2017-11-12T15:05:00.875Z,1.40
2017-11-12T15:07:29.366Z,1.90
2017-11-12T15:09:57.779Z,2.20
2017-11-12T15:12:26.140Z,1.73
2017-11-12T15:14:54.305Z,1.87
2017-11-12T15:17:22.613Z,1.73
2017-11-12T15:19:51.376Z,2.20
2017-11-12T15:22:19.727Z,1.60
2017-11-12T15:24:48.048Z,1.40
2017-11-12T15:27:17.114Z,1.77
2017-11-12T15:29:45.473Z,3.07
2017-11-12T15:35:04.337Z,1.77
2017-11-12T15:37:32.747Z,1.37
2017-11-12T15:40:01.057Z,1.63
2017-11-12T15:42:29.402Z,1.17
2017-11-12T15:44:57.737Z,2.40
2017-11-12T15:47:26.125Z,2.10
2017-11-12T15:49:55.187Z,1.43
2017-11-12T15:52:23.767Z,1.63
2017-11-12T15:54:53.584Z,1.53
2017-11-12T15:57:22.036Z,1.80
2017-11-12T15:59:50.375Z,2.00
2017-11-12T16:02:18.719Z,2.23
2017-11-12T16:04:47.170Z,3.10
2017-11-12T16:07:15.508Z,2.80
2017-11-12T16:09:44.605Z,2.40
2017-11-12T16:12:12.992Z,2.80
2017-11-12T16:14:41.314Z,2.73
2017-11-12T16:17:10.142Z,2.57
2017-11-12T16:19:39.260Z,1.87
2017-11-12T16:22:07.568Z,2.70
2017-11-12T16:24:35.876Z,2.60
2017-11-12T16:27:04.224Z,2.40
2017-11-12T16:29:32.624Z,2.50
2017-11-12T16:32:00.944Z,2.17
2017-11-12T16:34:29.255Z,2.50
2017-11-12T16:36:57.386Z,2.70
2017-11-12T16:39:26.304Z,2.43
2017-11-12T16:41:59.342Z,2.27
2017-11-12T16:44:27.673Z,2.00
2017-11-12T16:46:55.810Z,2.03
2017-11-12T16:49:24.808Z,2.43
2017-11-12T16:51:52.959Z,2.40
2017-11-12T16:54:21.230Z,2.60
2017-11-12T16:56:49.411Z,2.07
2017-11-12T16:59:17.566Z,2.43
2017-11-12T17:01:45.892Z,2.00
2017-11-12T17:04:14.237Z,2.10
2017-11-12T17:06:42.564Z,2.10
2017-11-12T17:09:10.865Z,1.93
2017-11-12T17:11:39.268Z,2.10
2017-11-12T17:14:08.446Z,2.43
2017-11-12T17:16:36.795Z,1.97
2017-11-12T17:19:05.120Z,2.47
2017-11-12T17:21:33.449Z,2.30
2017-11-12T17:24:01.802Z,2.20
2017-11-12T17:26:30.139Z,2.37
2017-11-12T17:28:58.484Z,3.20
2017-11-12T17:31:27.220Z,2.50
2017-11-12T17:33:55.533Z,1.93
2017-11-12T17:36:24.973Z,2.00
2017-11-12T17:38:53.329Z,2.60
2017-11-12T17:41:21.648Z,2.17
2017-11-12T17:43:50.003Z,1.67
2017-11-12T17:46:20.744Z,2.00
2017-11-12T17:48:49.349Z,2.07
2017-11-12T17:51:17.695Z,2.43
2017-11-12T17:53:46.034Z,2.87
2017-11-12T17:56:14.362Z,2.73
2017-11-12T17:58:42.710Z,2.30
2017-11-12T18:01:11.762Z,2.27
2017-11-12T18:03:40.126Z,2.63
2017-11-12T18:06:08.509Z,2.27
2017-11-12T18:08:36.820Z,2.33
2017-11-12T18:11:05.192Z,1.77
2017-11-12T18:13:34.115Z,2.23
2017-11-12T18:16:02.458Z,1.80
2017-11-12T18:18:30.820Z,2.10
2017-11-12T18:20:59.009Z,2.83
2017-11-12T18:23:27.544Z,2.00
2017-11-12T18:25:55.842Z,2.47
2017-11-12T18:28:24.171Z,2.20
2017-11-12T18:30:52.466Z,2.30
2017-11-12T18:33:20.775Z,2.33
2017-11-12T18:35:49.255Z,2.30
2017-11-12T18:38:17.413Z,2.33
2017-11-12T18:40:45.575Z,2.77
2017-11-12T18:43:14.473Z,2.03
2017-11-12T18:45:42.613Z,2.00
2017-11-12T18:48:11.569Z,2.70
2017-11-12T18:50:39.740Z,2.93
2017-11-12T18:53:08.507Z,2.57
2017-11-12T18:55:38.495Z,2.40
2017-11-12T18:58:08.256Z,2.73
2017-11-12T19:00:42.037Z,2.10
2017-11-12T19:06:19.682Z,2.10
2017-11-12T19:08:49.250Z,2.10
2017-11-12T19:11:17.478Z,2.70
2017-11-12T19:13:45.839Z,2.50
2017-11-12T19:16:14.185Z,2.83
2017-11-12T19:18:43.416Z,2.30
2017-11-12T19:21:16.734Z,2.37
2017-11-12T19:23:51.314Z,2.73
2017-11-12T19:26:21.293Z,3.27
2017-11-12T19:29:04.309Z,2.50
2017-11-12T19:31:32.617Z,2.87
2017-11-12T19:34:00.995Z,2.80
2017-11-12T19:36:29.355Z,2.40
2017-11-12T19:38:58.498Z,2.70
2017-11-12T19:41:26.850Z,3.07
2017-11-12T19:43:55.306Z,3.00
2017-11-12T19:46:24.469Z,3.17
2017-11-12T19:48:55.024Z,2.83
2017-11-12T19:51:24.015Z,2.97
2017-11-12T19:53:55.479Z,3.27
2017-11-12T19:56:23.947Z,3.00
2017-11-12T19:58:53.411Z,3.13
2017-11-12T20:01:22.764Z,2.63
2017-11-12T20:03:52.264Z,3.27
2017-11-12T20:06:21.531Z,3.17
2017-11-12T20:08:49.986Z,3.40
2017-11-12T20:11:18.126Z,3.40
2017-11-12T20:13:46.668Z,3.17
2017-11-12T20:16:15.046Z,3.70
2017-11-12T20:18:43.205Z,2.90
2017-11-12T20:21:12.884Z,3.13
2017-11-12T20:23:41.245Z,3.70
2017-11-12T20:26:09.543Z,3.70
2017-11-12T20:28:37.882Z,4.47
2017-11-12T20:31:06.986Z,3.47
2017-11-12T20:33:35.355Z,2.77
2017-11-12T20:36:03.710Z,3.90
2017-11-12T20:38:32.051Z,3.57
2017-11-12T20:41:01.138Z,3.83
2017-11-12T20:43:30.546Z,4.33
2017-11-12T20:45:58.880Z,3.50
2017-11-12T20:48:27.783Z,3.60
2017-11-12T20:50:56.720Z,3.17
2017-11-12T20:53:24.822Z,3.50
2017-11-12T20:55:52.989Z,3.80
2017-11-12T20:58:21.141Z,3.37
2017-11-12T21:00:52.831Z,3.40
2017-11-12T21:03:20.990Z,3.73
2017-11-12T21:05:51.620Z,3.40
2017-11-12T21:08:19.770Z,3.67
2017-11-12T21:10:47.979Z,4.43
2017-11-12T21:13:16.123Z,4.37
2017-11-12T21:15:44.483Z,4.07
2017-11-12T21:18:12.665Z,3.90
2017-11-12T21:20:44.088Z,3.57
2017-11-12T21:23:25.955Z,3.97
2017-11-12T21:25:54.214Z,4.30
2017-11-12T21:28:25.175Z,4.33
2017-11-12T21:30:55.485Z,3.73
2017-11-12T21:33:25.333Z,4.30
2017-11-12T21:35:56.001Z,4.10
2017-11-12T21:38:24.272Z,3.60
2017-11-12T21:40:53.288Z,3.70
2017-11-12T21:43:21.593Z,3.80
2017-11-12T21:45:49.787Z,3.63
2017-11-12T21:48:17.897Z,3.73
2017-11-12T21:50:46.223Z,4.40
2017-11-12T21:53:16.040Z,4.80
2017-11-12T21:55:44.590Z,4.67
2017-11-12T21:58:13.144Z,3.73
2017-11-12T22:00:41.499Z,3.93
2017-11-12T22:03:10.025Z,5.10
2017-11-12T22:05:39.890Z,4.37
2017-11-12T22:08:08.094Z,4.20
2017-11-12T22:10:37.737Z,4.37
2017-11-12T22:13:05.811Z,5.00
2017-11-12T22:15:33.982Z,4.07
2017-11-12T22:18:02.790Z,5.53
2017-11-12T22:20:31.119Z,4.03
2017-11-12T22:23:00.575Z,4.23
2017-11-12T22:25:28.745Z,4.30
2017-11-12T22:27:56.989Z,3.73
2017-11-12T22:30:25.513Z,4.40
2017-11-12T22:32:53.829Z,4.10
2017-11-12T22:35:22.191Z,4.50
2017-11-12T22:37:51.169Z,3.80
2017-11-12T22:40:19.484Z,4.10
2017-11-12T22:42:49.555Z,4.10
2017-11-12T22:45:17.875Z,3.80
2017-11-12T22:47:46.244Z,4.40
2017-11-12T22:50:15.444Z,4.47
2017-11-12T22:52:43.801Z,4.47
2017-11-12T22:55:12.376Z,4.00
2017-11-12T22:57:40.974Z,4.23
2017-11-12T23:00:09.569Z,3.87
2017-11-12T23:02:38.147Z,4.17
2017-11-12T23:05:06.615Z,4.70
2017-11-12T23:07:35.911Z,4.60
2017-11-12T23:10:05.407Z,4.40
2017-11-12T23:12:33.730Z,5.67
2017-11-12T23:15:02.150Z,4.10
2017-11-12T23:17:30.486Z,3.80
2017-11-12T23:19:58.676Z,3.73
2017-11-12T23:22:27.019Z,4.10
2017-11-12T23:24:57.289Z,3.87
2017-11-12T23:27:25.629Z,3.83
2017-11-12T23:29:53.921Z,3.97
2017-11-12T23:32:23.045Z,3.90
2017-11-12T23:34:51.395Z,3.83
2017-11-12T23:37:20.511Z,4.20
2017-11-12T23:39:48.843Z,4.33
2017-11-12T23:42:17.137Z,3.90
2017-11-12T23:44:45.506Z,3.70
2017-11-12T23:47:13.845Z,4.37
2017-11-12T23:49:42.145Z,3.90
2017-11-12T23:52:10.710Z,3.70
2017-11-12T23:54:39.068Z,4.70
2017-11-12T23:57:07.387Z,4.30
2017-11-12T23:59:35.767Z,4.73
